createdAt,value
2019-06-08T00:01:25.465Z,18.80
2019-06-08T00:03:51.798Z,18.80
2019-06-08T00:06:18.848Z,18.80
2019-06-08T00:08:45.275Z,18.80
2019-06-08T00:11:12.699Z,18.80
2019-06-08T00:13:42.148Z,18.70
2019-06-08T00:16:08.408Z,18.70
2019-06-08T00:18:34.904Z,18.70
2019-06-08T00:21:01.198Z,18.70
2019-06-08T00:23:27.559Z,18.70
2019-06-08T00:25:53.910Z,18.70
2019-06-08T00:28:20.403Z,18.70
2019-06-08T00:30:46.960Z,18.70
2019-06-08T00:33:14.317Z,18.60
2019-06-08T00:35:40.644Z,18.60
2019-06-08T00:38:06.915Z,18.60
2019-06-08T00:40:33.305Z,18.60
2019-06-08T00:42:59.637Z,18.60
2019-06-08T00:45:25.928Z,18.50
2019-06-08T00:47:52.300Z,18.50
2019-06-08T00:50:21.022Z,18.60
2019-06-08T00:52:47.430Z,18.50
2019-06-08T00:55:14.007Z,18.50
2019-06-08T00:57:40.386Z,18.50
2019-06-08T01:00:10.982Z,18.50
2019-06-08T01:02:36.537Z,18.50
2019-06-08T01:05:06.342Z,18.50
2019-06-08T01:07:33.083Z,18.50
2019-06-08T01:09:59.412Z,18.50
2019-06-08T01:12:26.779Z,18.50
2019-06-08T01:14:53.305Z,18.50
2019-06-08T01:17:20.984Z,18.50
2019-06-08T01:19:47.503Z,18.50
2019-06-08T01:22:14.141Z,18.50
2019-06-08T01:24:40.878Z,18.50
2019-06-08T01:27:07.209Z,18.50
2019-06-08T01:29:33.398Z,18.50
2019-06-08T01:31:59.765Z,18.50
2019-06-08T01:34:27.077Z,18.50
2019-06-08T01:36:53.772Z,18.50
2019-06-08T01:39:21.104Z,18.50
2019-06-08T01:41:49.322Z,18.50
2019-06-08T01:44:15.482Z,18.50
2019-06-08T01:46:42.047Z,18.50
2019-06-08T01:49:08.706Z,18.50
2019-06-08T01:51:35.010Z,18.50
2019-06-08T01:54:01.314Z,18.50
2019-06-08T01:56:27.605Z,18.50
2019-06-08T01:58:54.021Z,18.50
2019-06-08T02:01:20.338Z,18.50
2019-06-08T02:03:46.687Z,18.50
2019-06-08T02:06:13.099Z,18.50
2019-06-08T02:08:39.429Z,18.40
2019-06-08T02:11:05.762Z,18.50
2019-06-08T02:13:33.128Z,18.40
2019-06-08T02:15:59.546Z,18.40
2019-06-08T02:18:36.387Z,18.40
2019-06-08T02:20:53.960Z,18.40
2019-06-08T02:23:20.252Z,18.40
2019-06-08T02:25:46.546Z,18.40
2019-06-08T02:28:12.941Z,18.40
2019-06-08T02:30:41.716Z,18.40
2019-06-08T02:33:07.297Z,18.40
2019-06-08T02:35:35.442Z,18.40
2019-06-08T02:38:01.746Z,18.30
2019-06-08T02:40:30.130Z,18.30
2019-06-08T02:42:56.363Z,18.30
2019-06-08T02:45:22.688Z,18.30
2019-06-08T02:47:49.014Z,18.30
2019-06-08T02:50:19.130Z,18.30
2019-06-08T02:52:48.198Z,18.20
2019-06-08T02:55:14.681Z,18.20
2019-06-08T02:57:42.616Z,18.20
2019-06-08T03:00:11.619Z,18.20
2019-06-08T03:02:41.767Z,18.20
2019-06-08T03:05:09.255Z,18.10
2019-06-08T03:07:37.007Z,18.10
2019-06-08T03:10:05.466Z,18.10
2019-06-08T03:12:33.050Z,18.10
2019-06-08T03:15:01.758Z,18.10
2019-06-08T03:17:28.057Z,18.00
2019-06-08T03:19:54.468Z,18.00
2019-06-08T03:22:20.881Z,18.00
2019-06-08T03:24:47.314Z,18.00
2019-06-08T03:27:13.646Z,18.00
2019-06-08T03:29:41.627Z,18.00
2019-06-08T03:32:08.150Z,18.00
2019-06-08T03:34:35.687Z,18.00
2019-06-08T03:37:02.571Z,18.00
2019-06-08T03:39:28.858Z,18.00
2019-06-08T03:41:55.213Z,17.90
2019-06-08T03:44:21.544Z,17.90
2019-06-08T03:46:47.897Z,17.90
2019-06-08T03:49:14.305Z,17.90
2019-06-08T03:51:43.636Z,17.90
2019-06-08T03:54:08.669Z,17.90
2019-06-08T03:56:35.809Z,17.80
2019-06-08T03:59:02.297Z,17.90
2019-06-08T04:01:28.598Z,17.90
2019-06-08T04:03:58.986Z,17.80
2019-06-08T04:06:23.128Z,17.90
2019-06-08T04:08:49.969Z,17.80
2019-06-08T04:11:16.864Z,17.80
2019-06-08T04:13:44.678Z,17.80
2019-06-08T04:16:11.319Z,17.80
2019-06-08T04:18:38.098Z,17.70
2019-06-08T04:21:05.099Z,17.70
2019-06-08T04:23:31.380Z,17.70
2019-06-08T04:25:57.762Z,17.70
2019-06-08T04:28:24.400Z,17.70
2019-06-08T04:30:51.066Z,17.70
2019-06-08T04:33:17.367Z,17.70
2019-06-08T04:35:45.201Z,17.70
2019-06-08T04:38:12.167Z,17.70
2019-06-08T04:40:39.543Z,17.60
2019-06-08T04:43:06.618Z,17.60
2019-06-08T04:45:33.012Z,17.60
2019-06-08T04:47:59.294Z,17.60
2019-06-08T04:50:25.576Z,17.60
2019-06-08T04:52:51.903Z,17.60
2019-06-08T04:55:18.155Z,17.60
2019-06-08T04:57:47.578Z,17.50
2019-06-08T05:00:13.804Z,17.60
2019-06-08T05:02:42.205Z,17.50
2019-06-08T05:05:08.366Z,17.50
2019-06-08T05:07:34.800Z,17.50
2019-06-08T05:10:04.918Z,17.50
2019-06-08T05:12:31.167Z,17.50
2019-06-08T05:14:57.481Z,17.50
2019-06-08T05:17:23.811Z,17.50
2019-06-08T05:19:50.539Z,17.50
2019-06-08T05:22:16.978Z,17.50
2019-06-08T05:24:43.537Z,17.50
2019-06-08T05:27:10.051Z,17.50
2019-06-08T05:29:36.381Z,17.50
2019-06-08T05:32:02.816Z,17.60
2019-06-08T05:34:29.146Z,17.60
2019-06-08T05:36:55.405Z,17.60
2019-06-08T05:39:21.805Z,17.60
2019-06-08T05:41:48.020Z,17.60
2019-06-08T05:44:14.366Z,17.60
2019-06-08T05:46:43.690Z,17.60
2019-06-08T05:49:08.730Z,17.60
2019-06-08T05:51:35.021Z,17.60
2019-06-08T05:54:03.097Z,17.60
2019-06-08T05:56:29.600Z,17.60
2019-06-08T05:58:55.819Z,17.60
2019-06-08T06:01:22.171Z,17.60
2019-06-08T06:03:51.693Z,17.50
2019-06-08T06:06:16.662Z,17.60
2019-06-08T06:08:42.992Z,17.50
2019-06-08T06:11:09.236Z,17.50
2019-06-08T06:13:35.551Z,17.50
2019-06-08T06:16:02.193Z,17.50
2019-06-08T06:18:28.516Z,17.40
2019-06-08T06:21:09.771Z,17.40
2019-06-08T06:23:23.233Z,17.40
2019-06-08T06:25:49.675Z,17.30
2019-06-08T06:28:15.966Z,17.30
2019-06-08T06:30:44.027Z,17.20
2019-06-08T06:33:10.399Z,17.20
2019-06-08T06:35:36.722Z,17.20
2019-06-08T06:38:03.125Z,17.10
2019-06-08T06:40:29.406Z,17.10
2019-06-08T06:42:55.919Z,17.20
2019-06-08T06:45:22.249Z,17.10
2019-06-08T06:47:50.354Z,17.10
2019-06-08T06:50:16.959Z,17.10
2019-06-08T06:52:44.522Z,17.10
2019-06-08T06:55:11.038Z,17.10
2019-06-08T06:57:37.385Z,17.10
2019-06-08T07:00:06.275Z,17.10
2019-06-08T07:02:32.604Z,17.20
2019-06-08T07:04:58.889Z,17.20
2019-06-08T07:07:25.267Z,17.20
2019-06-08T07:09:52.621Z,17.20
2019-06-08T07:12:19.157Z,17.20
2019-06-08T07:14:46.933Z,17.20
2019-06-08T07:17:13.317Z,17.20
2019-06-08T07:19:39.686Z,17.20
2019-06-08T07:22:06.016Z,17.20
2019-06-08T07:24:32.345Z,17.30
2019-06-08T07:26:58.827Z,17.20
2019-06-08T07:29:25.523Z,17.20
2019-06-08T07:31:53.251Z,17.20
2019-06-08T07:34:20.040Z,17.20
2019-06-08T07:36:47.884Z,17.20
2019-06-08T07:39:14.586Z,17.20
2019-06-08T07:41:41.401Z,17.20
2019-06-08T07:44:07.719Z,17.20
2019-06-08T07:46:34.176Z,17.30
2019-06-08T07:49:00.567Z,17.30
2019-06-08T07:51:26.877Z,17.30
2019-06-08T07:53:53.561Z,17.30
2019-06-08T07:56:20.065Z,17.40
2019-06-08T07:58:49.524Z,17.40
2019-06-08T08:01:14.499Z,17.40
2019-06-08T08:03:40.902Z,17.40
2019-06-08T08:06:07.191Z,17.50
2019-06-08T08:08:33.519Z,17.50
2019-06-08T08:10:59.802Z,17.50
2019-06-08T08:13:26.222Z,17.60
2019-06-08T08:15:54.249Z,17.70
2019-06-08T08:18:20.644Z,17.80
2019-06-08T08:20:47.056Z,17.90
2019-06-08T08:23:13.386Z,18.10
2019-06-08T08:25:39.717Z,18.20
2019-06-08T08:28:08.093Z,18.30
2019-06-08T08:30:34.425Z,18.40
2019-06-08T08:33:02.982Z,18.50
2019-06-08T08:35:28.930Z,18.50
2019-06-08T08:38:00.480Z,18.60
2019-06-08T08:40:24.002Z,18.60
2019-06-08T08:42:51.069Z,18.60
2019-06-08T08:45:18.576Z,18.60
2019-06-08T08:47:44.870Z,18.60
2019-06-08T08:50:11.850Z,18.50
2019-06-08T08:52:40.953Z,18.50
2019-06-08T08:55:08.295Z,18.40
2019-06-08T08:57:34.942Z,18.40
2019-06-08T09:00:04.748Z,18.40
2019-06-08T09:02:29.695Z,18.40
2019-06-08T09:04:57.971Z,18.50
2019-06-08T09:07:24.128Z,18.50
2019-06-08T09:09:51.944Z,18.60
2019-06-08T09:12:18.568Z,18.60
2019-06-08T09:14:47.787Z,18.70
2019-06-08T09:17:13.241Z,18.70
2019-06-08T09:19:39.788Z,18.80
2019-06-08T09:22:08.326Z,18.80
2019-06-08T09:24:34.701Z,18.90
2019-06-08T09:27:03.937Z,18.90
2019-06-08T09:29:29.195Z,19.00
2019-06-08T09:31:56.023Z,19.10
2019-06-08T09:34:23.797Z,19.10
2019-06-08T09:36:50.092Z,19.20
2019-06-08T09:39:18.378Z,19.30
2019-06-08T09:41:47.853Z,19.40
2019-06-08T09:44:12.812Z,19.60
2019-06-08T09:46:39.312Z,19.80
2019-06-08T09:49:09.278Z,20.00
2019-06-08T09:51:33.845Z,20.10
2019-06-08T09:54:02.673Z,20.30
2019-06-08T09:56:28.520Z,20.50
2019-06-08T09:58:57.391Z,20.60
2019-06-08T10:01:23.273Z,20.80
2019-06-08T10:03:49.924Z,21.00
2019-06-08T10:06:18.296Z,21.20
2019-06-08T10:08:44.830Z,21.30
2019-06-08T10:11:11.145Z,21.40
2019-06-08T10:13:39.125Z,21.50
2019-06-08T10:16:09.307Z,21.60
2019-06-08T10:18:35.259Z,21.70
2019-06-08T10:21:03.470Z,21.70
2019-06-08T10:23:34.159Z,21.60
2019-06-08T10:26:00.368Z,21.60
2019-06-08T10:28:28.813Z,21.60
2019-06-08T10:30:55.243Z,21.50
2019-06-08T10:33:22.469Z,21.50
2019-06-08T10:35:48.784Z,21.50
2019-06-08T10:38:17.907Z,21.50
2019-06-08T10:41:10.934Z,21.40
2019-06-08T10:43:31.126Z,21.40
2019-06-08T10:46:04.931Z,21.30
2019-06-08T10:48:27.799Z,21.20
2019-06-08T10:50:54.081Z,21.20
2019-06-08T10:53:20.767Z,21.10
2019-06-08T10:55:48.142Z,21.10
2019-06-08T10:58:14.635Z,21.10
2019-06-08T11:00:40.967Z,21.00
2019-06-08T11:03:10.014Z,21.00
2019-06-08T11:05:35.309Z,21.00
2019-06-08T11:08:02.927Z,21.00
2019-06-08T11:10:29.975Z,20.90
2019-06-08T11:12:58.303Z,20.90
2019-06-08T11:15:24.477Z,20.90
2019-06-08T11:17:50.808Z,20.90
2019-06-08T11:20:17.453Z,20.80
2019-06-08T11:22:43.786Z,20.80
2019-06-08T11:25:16.236Z,20.80
2019-06-08T11:27:38.788Z,20.80
2019-06-08T11:30:17.966Z,20.80
2019-06-08T11:32:34.315Z,20.90
2019-06-08T11:35:01.914Z,20.90
2019-06-08T11:37:28.516Z,21.00
2019-06-08T11:39:57.299Z,21.10
2019-06-08T11:42:25.580Z,21.20
2019-06-08T11:44:51.497Z,21.40
2019-06-08T11:47:18.393Z,21.50
2019-06-08T11:49:44.779Z,21.60
2019-06-08T11:52:11.242Z,21.80
2019-06-08T11:54:40.862Z,21.90
2019-06-08T11:57:08.367Z,22.10
2019-06-08T11:59:33.963Z,22.20
2019-06-08T12:02:01.755Z,22.30
2019-06-08T12:04:28.387Z,22.30
2019-06-08T12:06:54.988Z,22.30
2019-06-08T12:09:21.420Z,22.30
2019-06-08T12:11:48.131Z,22.30
2019-06-08T12:14:14.634Z,22.20
2019-06-08T12:16:41.066Z,22.20
2019-06-08T12:19:13.211Z,22.00
2019-06-08T12:21:35.999Z,21.90
2019-06-08T12:24:04.032Z,21.80
2019-06-08T12:26:30.656Z,21.70
2019-06-08T12:28:58.024Z,21.70
2019-06-08T12:31:25.141Z,21.60
2019-06-08T12:33:51.524Z,21.60
2019-06-08T12:36:20.771Z,21.60
2019-06-08T12:38:45.822Z,21.60
2019-06-08T12:41:13.697Z,21.70
2019-06-08T12:43:40.319Z,21.80
2019-06-08T12:46:10.654Z,21.90
2019-06-08T12:48:34.833Z,22.00
2019-06-08T12:51:01.161Z,22.10
2019-06-08T12:53:28.281Z,22.30
2019-06-08T12:55:54.845Z,22.50
2019-06-08T12:58:22.075Z,22.50
2019-06-08T13:00:48.484Z,22.60
2019-06-08T13:03:14.861Z,22.60
2019-06-08T13:05:41.515Z,22.60
2019-06-08T13:08:09.749Z,22.70
2019-06-08T13:10:38.184Z,22.70
2019-06-08T13:13:04.342Z,22.80
2019-06-08T13:15:30.911Z,22.90
2019-06-08T13:17:58.649Z,22.90
2019-06-08T13:20:25.217Z,23.00
2019-06-08T13:22:51.668Z,23.10
2019-06-08T13:25:34.177Z,23.10
2019-06-08T13:27:47.921Z,23.20
2019-06-08T13:30:18.574Z,23.20
2019-06-08T13:32:43.471Z,23.30
2019-06-08T13:35:10.458Z,23.30
2019-06-08T13:37:38.893Z,23.40
2019-06-08T13:40:08.120Z,23.50
2019-06-08T13:42:34.255Z,23.50
2019-06-08T13:45:01.655Z,23.50
2019-06-08T13:47:28.325Z,23.50
2019-06-08T13:49:54.800Z,23.60
2019-06-08T13:52:22.499Z,23.50
2019-06-08T13:54:49.203Z,23.50
2019-06-08T13:57:15.532Z,23.40
2019-06-08T13:59:41.763Z,23.30
2019-06-08T14:02:08.147Z,23.10
2019-06-08T14:04:34.656Z,23.00
2019-06-08T14:07:01.058Z,22.90
2019-06-08T14:09:28.538Z,22.80
2019-06-08T14:11:57.616Z,22.70
2019-06-08T14:14:24.318Z,22.70
2019-06-08T14:16:51.606Z,22.60
2019-06-08T14:19:19.943Z,22.60
2019-06-08T14:21:47.643Z,22.60
2019-06-08T14:24:14.087Z,22.50
2019-06-08T14:26:40.449Z,22.30
2019-06-08T14:29:08.282Z,22.10
2019-06-08T14:31:34.807Z,21.90
2019-06-08T14:34:01.139Z,21.70
2019-06-08T14:36:29.115Z,21.50
2019-06-08T14:38:55.527Z,21.40
2019-06-08T14:41:22.749Z,21.30
2019-06-08T14:43:50.805Z,21.30
2019-06-08T14:46:19.333Z,21.20
2019-06-08T14:48:45.607Z,21.20
2019-06-08T14:51:12.006Z,21.30
2019-06-08T14:53:38.690Z,21.40
2019-06-08T14:56:08.731Z,21.40
2019-06-08T14:58:38.393Z,21.50
2019-06-08T15:01:02.548Z,21.60
2019-06-08T15:03:29.431Z,21.60
2019-06-08T15:05:57.643Z,21.60
2019-06-08T15:08:23.996Z,21.60
2019-06-08T15:10:50.227Z,21.60
2019-06-08T15:13:18.913Z,21.50
2019-06-08T15:15:44.831Z,21.50
2019-06-08T15:18:11.229Z,21.40
2019-06-08T15:20:38.043Z,21.40
2019-06-08T15:23:04.539Z,21.50
2019-06-08T15:25:32.775Z,21.50
2019-06-08T15:28:01.309Z,21.50
2019-06-08T15:30:29.389Z,21.50
2019-06-08T15:32:55.145Z,21.50
2019-06-08T15:35:21.456Z,21.50
2019-06-08T15:37:48.136Z,21.50
2019-06-08T15:40:14.997Z,21.50
2019-06-08T15:42:41.241Z,21.60
2019-06-08T15:45:08.315Z,21.60
2019-06-08T15:47:35.217Z,21.60
2019-06-08T15:50:03.417Z,21.60
2019-06-08T15:52:31.471Z,21.60
2019-06-08T15:55:00.797Z,21.60
2019-06-08T15:57:28.085Z,21.60
2019-06-08T15:59:54.038Z,21.70
2019-06-08T16:02:20.301Z,21.60
2019-06-08T16:04:46.697Z,21.70
2019-06-08T16:07:13.183Z,21.70
2019-06-08T16:09:39.467Z,21.70
2019-06-08T16:12:05.893Z,21.70
2019-06-08T16:14:32.855Z,21.70
2019-06-08T16:16:59.271Z,21.70
2019-06-08T16:19:25.514Z,21.70
2019-06-08T16:21:51.819Z,21.70
2019-06-08T16:24:18.262Z,21.60
2019-06-08T16:26:53.255Z,21.60
2019-06-08T16:29:12.919Z,21.60
2019-06-08T16:31:39.432Z,21.60
2019-06-08T16:34:05.723Z,21.70
2019-06-08T16:36:32.026Z,21.70
2019-06-08T16:38:58.394Z,21.70
2019-06-08T16:41:24.732Z,21.80
2019-06-08T16:43:51.057Z,21.90
2019-06-08T16:46:17.320Z,21.90
2019-06-08T16:48:43.722Z,22.00
2019-06-08T16:51:10.072Z,22.10
2019-06-08T16:53:36.377Z,22.10
2019-06-08T16:56:02.816Z,22.10
2019-06-08T16:58:30.016Z,22.20
2019-06-08T17:00:56.495Z,22.20
2019-06-08T17:03:22.825Z,22.20
2019-06-08T17:05:49.073Z,22.20
2019-06-08T17:08:15.385Z,22.20
2019-06-08T17:10:41.713Z,22.30
2019-06-08T17:13:11.242Z,22.40
2019-06-08T17:15:36.221Z,22.50
2019-06-08T17:18:02.809Z,22.60
2019-06-08T17:20:30.078Z,22.70
2019-06-08T17:22:56.548Z,22.80
2019-06-08T17:25:22.871Z,23.00
2019-06-08T17:27:49.135Z,23.10
2019-06-08T17:30:15.570Z,23.30
2019-06-08T17:32:42.270Z,23.40
2019-06-08T17:35:09.151Z,23.40
2019-06-08T17:37:35.993Z,23.30
2019-06-08T17:40:03.359Z,23.20
2019-06-08T17:42:29.744Z,23.10
2019-06-08T17:44:56.156Z,23.00
2019-06-08T17:47:24.619Z,23.00
2019-06-08T17:49:50.578Z,22.90
2019-06-08T17:52:16.855Z,23.00
2019-06-08T17:54:43.367Z,23.00
2019-06-08T17:57:09.978Z,23.00
2019-06-08T17:59:37.460Z,23.00
2019-06-08T18:02:04.077Z,23.00
2019-06-08T18:04:30.330Z,22.80
2019-06-08T18:06:58.070Z,22.80
2019-06-08T18:09:24.398Z,22.60
2019-06-08T18:11:50.726Z,22.40
2019-06-08T18:14:18.084Z,22.30
2019-06-08T18:16:47.816Z,22.20
2019-06-08T18:19:28.821Z,22.10
2019-06-08T18:22:02.636Z,22.20
2019-06-08T18:24:23.984Z,22.30
2019-06-08T18:26:52.056Z,22.40
2019-06-08T18:29:18.386Z,22.50
2019-06-08T18:31:46.115Z,22.70
2019-06-08T18:34:17.822Z,22.70
2019-06-08T18:36:44.998Z,22.80
2019-06-08T18:39:11.604Z,22.90
2019-06-08T18:41:39.348Z,23.00
2019-06-08T18:44:08.424Z,23.10
2019-06-08T18:46:34.961Z,23.20
2019-06-08T18:49:02.341Z,23.20
2019-06-08T18:51:28.676Z,23.20
2019-06-08T18:54:08.604Z,23.30
2019-06-08T18:56:23.382Z,23.30
2019-06-08T18:58:53.506Z,23.20
2019-06-08T19:01:21.575Z,23.20
2019-06-08T19:03:47.996Z,23.20
2019-06-08T19:06:14.437Z,23.10
2019-06-08T19:08:43.238Z,23.00
2019-06-08T19:11:08.944Z,22.90
2019-06-08T19:13:37.897Z,22.90
2019-06-08T19:16:04.372Z,22.80
2019-06-08T19:18:30.705Z,22.70
2019-06-08T19:20:57.695Z,22.60
2019-06-08T19:23:24.180Z,22.50
2019-06-08T19:25:50.583Z,22.20
2019-06-08T19:28:19.089Z,22.10
2019-06-08T19:30:49.323Z,21.90
2019-06-08T19:33:13.288Z,21.60
2019-06-08T19:35:40.772Z,21.40
2019-06-08T19:38:07.690Z,21.20
2019-06-08T19:40:37.638Z,21.00
2019-06-08T19:43:02.058Z,20.80
2019-06-08T19:45:28.422Z,20.60
2019-06-08T19:47:54.753Z,20.50
2019-06-08T19:50:21.098Z,20.30
2019-06-08T19:52:53.053Z,20.20
2019-06-08T19:55:17.920Z,20.00
2019-06-08T19:57:43.613Z,19.90
2019-06-08T20:00:11.930Z,19.80
2019-06-08T20:02:38.265Z,19.70
2019-06-08T20:05:05.118Z,19.50
2019-06-08T20:07:31.442Z,19.40
2019-06-08T20:09:57.767Z,19.30
2019-06-08T20:12:24.098Z,19.20
2019-06-08T20:14:51.079Z,19.10
2019-06-08T20:17:19.425Z,19.00
2019-06-08T20:19:47.972Z,18.90
2019-06-08T20:22:18.081Z,18.80
2019-06-08T20:24:44.088Z,18.70
2019-06-08T20:27:10.582Z,18.70
2019-06-08T20:29:38.108Z,18.60
2019-06-08T20:32:04.674Z,18.50
2019-06-08T20:34:31.008Z,18.40
2019-06-08T20:36:58.388Z,18.30
2019-06-08T20:39:27.332Z,18.30
2019-06-08T20:41:53.585Z,18.20
2019-06-08T20:44:20.015Z,18.20
2019-06-08T20:46:48.956Z,18.10
2019-06-08T20:49:14.417Z,18.00
2019-06-08T20:51:40.709Z,18.00
2019-06-08T20:54:07.921Z,17.90
2019-06-08T20:56:34.429Z,17.90
2019-06-08T20:59:00.708Z,17.80
2019-06-08T21:01:27.092Z,17.70
2019-06-08T21:03:54.234Z,17.70
2019-06-08T21:06:20.569Z,17.60
2019-06-08T21:08:48.981Z,17.60
2019-06-08T21:11:17.611Z,17.50
2019-06-08T21:13:45.145Z,17.50
2019-06-08T21:16:12.038Z,17.50
2019-06-08T21:18:38.468Z,17.40
2019-06-08T21:21:04.674Z,17.40
2019-06-08T21:23:32.121Z,17.40
2019-06-08T21:26:00.150Z,17.30
2019-06-08T21:28:27.968Z,17.30
2019-06-08T21:30:58.234Z,17.20
2019-06-08T21:33:22.543Z,17.20
2019-06-08T21:35:50.836Z,17.20
2019-06-08T21:38:23.430Z,17.20
2019-06-08T21:40:45.172Z,17.10
2019-06-08T21:43:11.501Z,17.10
2019-06-08T21:45:38.224Z,17.10
2019-06-08T21:48:04.674Z,17.10
2019-06-08T21:50:31.003Z,17.00
2019-06-08T21:53:00.279Z,17.00
2019-06-08T21:55:27.335Z,17.00
2019-06-08T21:57:54.321Z,16.90
2019-06-08T22:00:38.603Z,16.90
2019-06-08T22:02:51.730Z,16.90
2019-06-08T22:05:18.148Z,16.80
2019-06-08T22:07:47.054Z,16.80
2019-06-08T22:10:12.859Z,16.80
2019-06-08T22:12:40.454Z,16.80
2019-06-08T22:15:07.719Z,16.70
2019-06-08T22:17:34.363Z,16.70
2019-06-08T22:20:01.046Z,16.60
2019-06-08T22:22:27.532Z,16.60
2019-06-08T22:24:55.343Z,16.50
2019-06-08T22:27:21.832Z,16.60
2019-06-08T22:29:48.456Z,16.50
2019-06-08T22:32:14.800Z,16.50
2019-06-08T22:34:41.081Z,16.50
2019-06-08T22:37:08.502Z,16.40
2019-06-08T22:39:37.223Z,16.40
2019-06-08T22:42:03.809Z,16.30
2019-06-08T22:44:30.095Z,16.30
2019-06-08T22:46:59.593Z,16.20
2019-06-08T22:49:24.541Z,16.20
2019-06-08T22:51:50.871Z,16.20
2019-06-08T22:54:17.131Z,16.10
2019-06-08T22:56:43.449Z,16.10
2019-06-08T22:59:09.862Z,16.10
2019-06-08T23:01:38.240Z,16.00
2019-06-08T23:04:05.615Z,16.00
2019-06-08T23:06:32.396Z,16.00
2019-06-08T23:09:00.742Z,15.90
2019-06-08T23:11:28.415Z,15.90
2019-06-08T23:13:55.013Z,15.90
2019-06-08T23:16:21.344Z,15.90
2019-06-08T23:18:47.923Z,15.80
2019-06-08T23:21:14.413Z,15.80
2019-06-08T23:23:40.747Z,15.80
2019-06-08T23:26:10.221Z,15.80
2019-06-08T23:28:37.546Z,15.80
2019-06-08T23:31:13.712Z,15.70
2019-06-08T23:33:31.493Z,15.70
2019-06-08T23:36:33.628Z,15.70
2019-06-08T23:38:27.779Z,15.70
2019-06-08T23:40:54.068Z,15.60
2019-06-08T23:43:20.399Z,15.60
2019-06-08T23:45:47.483Z,15.60
2019-06-08T23:48:13.981Z,15.60
2019-06-08T23:50:40.182Z,15.60
2019-06-08T23:53:09.173Z,15.50
2019-06-08T23:55:37.097Z,15.60
2019-06-08T23:58:03.293Z,15.50
